Time;durP1;ratioP1;P1;durP2;ratioP2;P2;SDS_P1;SDS_P2;PMS_P1;PMS_P2;Temp;Humidity;BMP_temperature;BMP_pressure;BME280_temperature;BME280_humidity;BME280_pressure;Samples;Min_cycle;Max_cycle;Signal;HPM_P1;HPM_P2
2021/10/10 00:02:13;;;;;;;12.80;6.45;;;;;;;;;;5076676;28;20071;-84
2021/10/10 00:04:39;;;;;;;16.95;6.28;;;;;;;;;;5075354;28;20234;-84
2021/10/10 00:07:15;;;;;;;15.85;6.32;;;;;;;;;;5056156;28;20579;-85
2021/10/10 00:09:42;;;;;;;16.17;8.07;;;;;;;;;;5068457;28;20044;-85
2021/10/10 00:12:08;;;;;;;11.45;5.97;;;;;;;;;;5089025;28;20105;-85
2021/10/10 00:14:35;;;;;;;15.35;7.38;;;;;;;;;;5081148;28;20055;-85
2021/10/10 00:17:06;;;;;;;13.15;6.85;;;;;;;;;;5063780;28;20048;-84
2021/10/10 00:19:35;;;;;;;16.90;7.68;;;;;;;;;;5079237;28;20052;-83
2021/10/10 00:22:02;;;;;;;12.55;7.20;;;;;;;;;;5079007;28;20040;-86
2021/10/10 00:24:29;;;;;;;17.75;7.05;;;;;;;;;;5078616;28;20082;-85
2021/10/10 00:26:58;;;;;;;16.02;7.30;;;;;;;;;;5086013;28;20056;-86
2021/10/10 00:29:25;;;;;;;13.23;7.15;;;;;;;;;;5083042;28;20072;-85
2021/10/10 00:31:59;;;;;;;11.93;7.10;;;;;;;;;;5083789;28;20052;-84
2021/10/10 00:34:31;;;;;;;;;;;;;;;;;;5084126;28;20048;-85
2021/10/10 00:36:57;;;;;;;14.77;6.93;;;;;;;;;;5080165;28;19992;-84
2021/10/10 00:39:24;;;;;;;14.13;7.25;;;;;;;;;;5101565;28;20054;-84
2021/10/10 00:41:51;;;;;;;14.63;7.22;;;;;;;;;;5068297;28;20113;-84
2021/10/10 00:44:17;;;;;;;12.55;7.30;;;;;;;;;;5096320;28;20110;-84
2021/10/10 00:46:44;;;;;;;15.93;7.97;;;;;;;;;;5111892;28;20068;-84
2021/10/10 00:49:10;;;;;;;17.80;7.70;;;;;;;;;;5082253;28;20576;-84
2021/10/10 00:51:38;;;;;;;14.70;7.63;;;;;;;;;;5082204;28;20048;-85
2021/10/10 00:54:05;;;;;;;18.52;8.13;;;;;;;;;;5096847;28;20128;-84
2021/10/10 00:56:36;;;;;;;16.55;7.95;;;;;;;;;;5082434;28;20334;-84
2021/10/10 00:59:03;;;;;;;12.10;7.03;;;;;;;;;;5102083;28;20048;-84
2021/10/10 01:01:30;;;;;;;11.57;7.57;;;;;;;;;;5082890;28;20225;-85
2021/10/10 01:04:04;;;;;;;11.60;7.35;;;;;;;;;;5081854;28;20056;-84
2021/10/10 01:06:30;;;;;;;16.30;7.68;;;;;;;;;;5086541;28;20068;-84
2021/10/10 01:08:57;;;;;;;16.77;7.97;;;;;;;;;;5079802;28;20396;-84
2021/10/10 01:11:26;;;;;;;14.95;7.20;;;;;;;;;;5089708;28;20056;-84
2021/10/10 01:13:52;;;;;;;12.60;7.05;;;;;;;;;;5099448;28;20283;-84
2021/10/10 01:16:19;;;;;;;15.85;7.45;;;;;;;;;;5098958;28;20044;-84
2021/10/10 01:18:46;;;;;;;15.43;7.55;;;;;;;;;;5098921;28;20382;-84
2021/10/10 01:21:12;;;;;;;22.42;7.72;;;;;;;;;;5099625;28;20048;-84
2021/10/10 01:23:39;;;;;;;13.45;7.97;;;;;;;;;;5098582;28;20526;-84
2021/10/10 01:26:06;;;;;;;22.67;7.88;;;;;;;;;;5080950;28;20086;-84
2021/10/10 01:28:33;;;;;;;14.20;6.82;;;;;;;;;;5070873;28;20280;-85
2021/10/10 01:30:59;;;;;;;15.60;6.88;;;;;;;;;;5060931;28;20063;-84
2021/10/10 01:33:26;;;;;;;11.15;7.40;;;;;;;;;;5078673;28;20063;-85
2021/10/10 01:35:53;;;;;;;11.30;7.38;;;;;;;;;;5062898;28;20064;-84
2021/10/10 01:38:19;;;;;;;22.48;7.57;;;;;;;;;;5087794;28;20106;-84
2021/10/10 01:40:47;;;;;;;16.25;7.63;;;;;;;;;;5080262;28;20423;-84
2021/10/10 01:43:13;;;;;;;16.95;7.45;;;;;;;;;;5080807;28;20052;-84
2021/10/10 01:45:40;;;;;;;13.90;7.88;;;;;;;;;;5081245;28;20348;-84
2021/10/10 01:48:13;;;;;;;14.27;8.25;;;;;;;;;;5079660;28;20056;-84
2021/10/10 01:50:39;;;;;;;14.32;7.63;;;;;;;;;;5079202;28;20060;-84
2021/10/10 01:53:09;;;;;;;17.13;8.75;;;;;;;;;;5098243;28;20052;-84
2021/10/10 01:55:36;;;;;;;17.73;7.45;;;;;;;;;;5079816;28;20055;-84
2021/10/10 01:58:03;;;;;;;17.23;6.93;;;;;;;;;;5096829;28;20505;-84
2021/10/10 02:00:29;;;;;;;17.67;7.25;;;;;;;;;;5097054;28;20040;-84
2021/10/10 02:02:56;;;;;;;15.18;8.25;;;;;;;;;;5060334;28;20099;-84
2021/10/10 02:05:23;;;;;;;16.38;7.97;;;;;;;;;;5061651;28;20420;-84
2021/10/10 02:07:53;;;;;;;23.13;8.95;;;;;;;;;;5064884;28;20075;-84
2021/10/10 02:10:19;;;;;;;14.68;8.55;;;;;;;;;;5059913;28;20067;-84
2021/10/10 02:12:46;;;;;;;16.98;7.35;;;;;;;;;;5071972;28;20044;-84
2021/10/10 02:15:16;;;;;;;29.35;8.75;;;;;;;;;;5096867;28;20056;-84
2021/10/10 02:17:43;;;;;;;25.30;8.50;;;;;;;;;;5090721;28;20043;-84
2021/10/10 02:20:10;;;;;;;24.67;8.27;;;;;;;;;;5091542;28;20049;-83
2021/10/10 02:22:36;;;;;;;14.40;8.13;;;;;;;;;;5069293;28;20081;-85
2021/10/10 02:25:04;;;;;;;13.30;7.82;;;;;;;;;;5079415;28;20056;-84
2021/10/10 02:27:30;;;;;;;23.30;8.32;;;;;;;;;;5088974;28;20066;-84
2021/10/10 02:29:57;;;;;;;18.00;9.35;;;;;;;;;;5100677;28;20248;-84
2021/10/10 02:32:23;;;;;;;20.48;7.95;;;;;;;;;;5094640;28;20036;-84
2021/10/10 02:34:50;;;;;;;15.80;8.55;;;;;;;;;;5094209;28;20050;-84
2021/10/10 02:37:16;;;;;;;14.27;8.07;;;;;;;;;;5076270;28;20075;-84
2021/10/10 02:39:43;;;;;;;13.98;7.93;;;;;;;;;;5059301;28;20048;-84
2021/10/10 02:42:10;;;;;;;20.27;8.98;;;;;;;;;;5059966;28;20045;-84
2021/10/10 02:44:36;;;;;;;13.85;8.30;;;;;;;;;;5083948;27;20028;-85
2021/10/10 02:47:03;;;;;;;16.20;8.32;;;;;;;;;;5106987;28;20095;-84
2021/10/10 02:49:30;;;;;;;23.10;9.20;;;;;;;;;;5069040;28;20429;-84
2021/10/10 02:51:56;;;;;;;20.98;9.27;;;;;;;;;;5070185;28;20052;-84
2021/10/10 02:54:23;;;;;;;16.60;9.05;;;;;;;;;;5079170;28;20056;-84
2021/10/10 02:56:50;;;;;;;17.58;9.90;;;;;;;;;;5097856;28;20044;-84
2021/10/10 02:59:16;;;;;;;15.27;9.23;;;;;;;;;;5078937;28;20066;-84
2021/10/10 03:01:43;;;;;;;17.30;8.98;;;;;;;;;;5077612;28;20047;-84
2021/10/10 03:04:11;;;;;;;17.85;9.48;;;;;;;;;;5079504;28;20436;-84
2021/10/10 03:06:38;;;;;;;14.55;8.68;;;;;;;;;;5079808;28;20052;-84
2021/10/10 03:09:06;;;;;;;17.73;10.15;;;;;;;;;;5075008;28;20146;-84
2021/10/10 03:11:33;;;;;;;16.55;9.13;;;;;;;;;;5064110;28;20118;-85
2021/10/10 03:14:00;;;;;;;18.13;9.27;;;;;;;;;;5069146;28;20060;-84
2021/10/10 03:16:29;;;;;;;16.30;9.57;;;;;;;;;;5058453;28;20100;-84
2021/10/10 03:18:55;;;;;;;19.48;9.90;;;;;;;;;;5059081;28;20094;-84
2021/10/10 03:21:25;;;;;;;19.08;10.10;;;;;;;;;;5079765;28;20056;-84
2021/10/10 03:23:52;;;;;;;15.45;9.25;;;;;;;;;;5080184;28;20140;-84
2021/10/10 03:26:18;;;;;;;19.52;8.48;;;;;;;;;;5079286;28;20098;-83
2021/10/10 03:28:45;;;;;;;20.85;10.65;;;;;;;;;;5079555;28;20106;-84
2021/10/10 03:31:12;;;;;;;18.45;9.52;;;;;;;;;;5079873;28;20397;-84
2021/10/10 03:33:39;;;;;;;20.50;9.70;;;;;;;;;;5078687;28;20048;-84
2021/10/10 03:36:06;;;;;;;18.98;9.35;;;;;;;;;;5080786;28;20045;-84
2021/10/10 03:38:33;;;;;;;17.50;9.27;;;;;;;;;;5071208;28;20061;-84
2021/10/10 03:41:00;;;;;;;14.80;8.88;;;;;;;;;;5081616;28;20151;-84
2021/10/10 03:43:27;;;;;;;16.98;9.18;;;;;;;;;;5080814;28;20055;-84
2021/10/10 03:46:06;;;;;;;19.33;10.57;;;;;;;;;;5093381;28;20036;-84
2021/10/10 03:48:32;;;;;;;22.08;10.00;;;;;;;;;;5082469;28;20109;-84
2021/10/10 03:50:59;;;;;;;15.15;10.52;;;;;;;;;;5079053;28;20049;-84
2021/10/10 03:53:42;;;;;;;15.98;9.40;;;;;;;;;;5063120;28;20044;-84
2021/10/10 03:56:10;;;;;;;20.45;11.23;;;;;;;;;;5058711;28;20049;-83
2021/10/10 03:58:39;;;;;;;19.95;10.48;;;;;;;;;;5069934;28;20051;-83
2021/10/10 04:01:05;;;;;;;19.23;10.95;;;;;;;;;;5078664;28;20055;-83
2021/10/10 04:03:32;;;;;;;22.75;12.48;;;;;;;;;;5078862;28;20059;-83
2021/10/10 04:06:01;;;;;;;19.17;10.50;;;;;;;;;;5068630;28;20060;-83
2021/10/10 04:08:27;;;;;;;19.33;11.00;;;;;;;;;;5074455;28;20405;-83
2021/10/10 04:10:54;;;;;;;21.65;11.02;;;;;;;;;;5073922;28;20126;-83
2021/10/10 04:13:21;;;;;;;22.88;10.57;;;;;;;;;;5062960;28;20079;-83
2021/10/10 04:15:48;;;;;;;22.45;10.45;;;;;;;;;;5064140;28;20083;-83
2021/10/10 04:18:14;;;;;;;24.52;11.93;;;;;;;;;;5062731;28;20060;-83
2021/10/10 04:20:41;;;;;;;22.25;11.50;;;;;;;;;;5062931;28;20052;-83
2021/10/10 04:23:08;;;;;;;18.70;10.95;;;;;;;;;;5080088;28;20049;-83
2021/10/10 04:25:35;;;;;;;21.15;10.80;;;;;;;;;;5061310;28;20057;-83
2021/10/10 04:28:01;;;;;;;20.40;9.98;;;;;;;;;;5060234;28;20049;-83
2021/10/10 04:30:28;;;;;;;23.15;11.02;;;;;;;;;;5060284;28;20095;-83
2021/10/10 04:32:55;;;;;;;19.33;9.70;;;;;;;;;;5059860;28;20040;-83
2021/10/10 04:35:21;;;;;;;21.08;11.23;;;;;;;;;;5077763;28;20041;-83
2021/10/10 04:37:51;;;;;;;18.00;10.45;;;;;;;;;;5095627;28;20389;-83
2021/10/10 04:40:18;;;;;;;16.60;9.38;;;;;;;;;;5098645;28;20052;-83
2021/10/10 04:42:44;;;;;;;19.38;10.27;;;;;;;;;;5068281;28;20092;-83
2021/10/10 04:45:15;;;;;;;18.55;10.55;;;;;;;;;;5062155;28;20204;-83
2021/10/10 04:47:42;;;;;;;18.40;9.70;;;;;;;;;;5066680;28;20056;-83
2021/10/10 04:50:09;;;;;;;18.85;9.40;;;;;;;;;;5078881;28;20060;-83
2021/10/10 04:52:35;;;;;;;18.50;9.90;;;;;;;;;;5061819;28;20062;-83
2021/10/10 04:55:03;;;;;;;21.67;10.63;;;;;;;;;;5088367;28;20412;-83
2021/10/10 04:57:29;;;;;;;21.48;9.68;;;;;;;;;;5083019;28;20159;-83
2021/10/10 04:59:56;;;;;;;16.00;10.40;;;;;;;;;;5099724;28;20044;-83
2021/10/10 05:02:23;;;;;;;18.83;9.98;;;;;;;;;;5099688;28;20432;-83
2021/10/10 05:04:51;;;;;;;18.27;10.52;;;;;;;;;;5081444;28;20101;-83
2021/10/10 05:07:18;;;;;;;16.10;9.45;;;;;;;;;;5068067;28;20309;-83
2021/10/10 05:09:44;;;;;;;21.85;10.80;;;;;;;;;;5077684;28;20067;-83
2021/10/10 05:12:13;;;;;;;20.40;11.10;;;;;;;;;;5037383;28;20421;-83
2021/10/10 05:14:40;;;;;;;22.02;10.43;;;;;;;;;;5054374;28;20123;-83
2021/10/10 05:17:06;;;;;;;14.70;10.05;;;;;;;;;;5039150;28;20209;-84
2021/10/10 05:19:36;;;;;;;19.73;9.70;;;;;;;;;;5039844;28;20045;-84
2021/10/10 05:22:03;;;;;;;19.30;9.63;;;;;;;;;;5046540;28;20063;-84
2021/10/10 05:24:30;;;;;;;17.98;10.15;;;;;;;;;;5057714;28;20436;-83
2021/10/10 05:26:58;;;;;;;20.58;10.73;;;;;;;;;;5042994;28;20054;-83
2021/10/10 05:29:25;;;;;;;22.27;13.05;;;;;;;;;;5043349;28;20053;-83
2021/10/10 05:31:52;;;;;;;20.23;10.55;;;;;;;;;;5072935;28;20056;-83
2021/10/10 05:34:18;;;;;;;22.30;11.63;;;;;;;;;;5072316;28;20060;-83
2021/10/10 05:36:45;;;;;;;19.67;11.95;;;;;;;;;;5039761;28;20053;-83
2021/10/10 05:39:12;;;;;;;18.35;10.82;;;;;;;;;;5071465;28;20046;-85
2021/10/10 05:41:38;;;;;;;19.23;10.95;;;;;;;;;;5070502;28;20064;-83
2021/10/10 05:44:14;;;;;;;17.38;10.35;;;;;;;;;;5038864;28;20053;-83
2021/10/10 05:46:40;;;;;;;21.08;10.77;;;;;;;;;;5039833;28;20057;-83
2021/10/10 05:49:07;;;;;;;19.88;11.73;;;;;;;;;;5070436;28;20081;-83
2021/10/10 05:51:34;;;;;;;19.00;11.88;;;;;;;;;;5037756;28;20053;-83
2021/10/10 05:54:04;;;;;;;19.58;10.95;;;;;;;;;;5040034;28;20065;-84
2021/10/10 05:56:33;;;;;;;21.33;11.93;;;;;;;;;;5041135;28;20056;-83
2021/10/10 05:59:06;;;;;;;21.00;10.85;;;;;;;;;;5063032;28;20033;-84
2021/10/10 06:01:38;;;;;;;21.98;12.15;;;;;;;;;;5053837;28;20053;-84
2021/10/10 06:04:08;;;;;;;25.48;11.48;;;;;;;;;;5048359;28;20057;-84
2021/10/10 06:06:34;;;;;;;20.38;11.30;;;;;;;;;;5039023;28;20104;-84
2021/10/10 06:09:03;;;;;;;18.45;10.25;;;;;;;;;;5055508;28;20148;-84
2021/10/10 06:11:30;;;;;;;16.83;10.10;;;;;;;;;;5061715;28;20056;-83
2021/10/10 06:13:57;;;;;;;16.88;10.38;;;;;;;;;;5072338;28;20130;-83
2021/10/10 06:16:24;;;;;;;19.40;9.68;;;;;;;;;;5067963;28;20057;-83
2021/10/10 06:18:51;;;;;;;16.95;9.68;;;;;;;;;;5067205;28;20056;-84
2021/10/10 06:21:17;;;;;;;19.70;9.82;;;;;;;;;;5059532;28;20049;-83
2021/10/10 06:23:44;;;;;;;19.73;8.85;;;;;;;;;;5057066;28;20100;-84
2021/10/10 06:26:14;;;;;;;13.05;8.07;;;;;;;;;;5062099;28;20064;-84
2021/10/10 06:28:40;;;;;;;30.55;16.38;;;;;;;;;;5065294;28;20059;-85
2021/10/10 06:31:07;;;;;;;31.77;12.07;;;;;;;;;;5054951;28;20145;-84
2021/10/10 06:33:35;;;;;;;14.30;8.93;;;;;;;;;;5054567;28;20290;-85
2021/10/10 06:36:05;;;;;;;18.10;8.75;;;;;;;;;;5057403;28;20053;-84
2021/10/10 06:38:31;;;;;;;18.33;9.23;;;;;;;;;;5056275;28;20230;-84
2021/10/10 06:40:58;;;;;;;18.38;9.75;;;;;;;;;;5056207;28;20056;-84
2021/10/10 06:43:24;;;;;;;15.60;9.32;;;;;;;;;;5057982;28;20041;-84
2021/10/10 06:45:51;;;;;;;18.58;9.75;;;;;;;;;;5066231;28;20040;-84
2021/10/10 06:48:17;;;;;;;18.90;9.07;;;;;;;;;;5066735;28;20048;-84
2021/10/10 06:50:44;;;;;;;15.95;8.63;;;;;;;;;;5059617;28;20255;-84
2021/10/10 06:53:11;;;;;;;17.95;9.20;;;;;;;;;;5056091;28;20049;-84
2021/10/10 06:55:37;;;;;;;18.08;9.18;;;;;;;;;;5057474;28;20053;-84
2021/10/10 06:58:04;;;;;;;25.95;9.95;;;;;;;;;;5054533;28;20232;-85
2021/10/10 07:00:33;;;;;;;16.13;9.10;;;;;;;;;;5053171;28;20310;-85
2021/10/10 07:03:00;;;;;;;17.63;9.20;;;;;;;;;;5056151;28;20064;-84
2021/10/10 07:05:26;;;;;;;17.58;10.00;;;;;;;;;;5052660;28;20055;-85
2021/10/10 07:07:56;;;;;;;20.42;10.43;;;;;;;;;;5068852;28;20040;-84
2021/10/10 07:10:23;;;;;;;16.42;9.35;;;;;;;;;;5080690;28;20079;-84
2021/10/10 07:12:52;;;;;;;14.45;8.70;;;;;;;;;;5078319;28;20143;-85
2021/10/10 07:15:19;;;;;;;16.88;9.63;;;;;;;;;;5076801;28;20552;-85
2021/10/10 07:17:45;;;;;;;23.25;10.88;;;;;;;;;;5075481;28;20040;-85
2021/10/10 07:20:28;;;;;;;16.17;9.38;;;;;;;;;;5076044;28;20366;-85
2021/10/10 07:23:10;;;;;;;14.57;8.80;;;;;;;;;;5076289;28;20044;-84
2021/10/10 07:25:37;;;;;;;18.48;9.23;;;;;;;;;;5078824;28;20047;-84
2021/10/10 07:28:04;;;;;;;17.15;8.57;;;;;;;;;;5075916;28;20392;-84
2021/10/10 07:30:31;;;;;;;15.77;7.82;;;;;;;;;;5095146;28;20052;-84
2021/10/10 07:32:57;;;;;;;14.43;8.45;;;;;;;;;;5076756;28;20052;-85
2021/10/10 07:35:24;;;;;;;13.13;7.80;;;;;;;;;;5080449;28;20052;-84
2021/10/10 07:37:50;;;;;;;14.02;7.88;;;;;;;;;;5077274;28;20528;-85
2021/10/10 07:40:17;;;;;;;16.73;8.10;;;;;;;;;;5093727;28;20106;-84
2021/10/10 07:42:47;;;;;;;11.32;7.95;;;;;;;;;;5092601;28;20051;-84
2021/10/10 07:45:18;;;;;;;12.82;8.02;;;;;;;;;;5072725;28;20052;-84
2021/10/10 07:50:20;;;;;;;14.07;8.63;;;;;;;;;;5075892;28;20289;-85
2021/10/10 07:52:49;;;;;;;13.38;7.53;;;;;;;;;;5091842;28;20059;-85
2021/10/10 07:55:16;;;;;;;16.42;8.45;;;;;;;;;;5093360;28;20048;-84
2021/10/10 07:57:46;;;;;;;15.90;8.60;;;;;;;;;;5092626;28;20050;-85
2021/10/10 08:00:13;;;;;;;13.27;7.47;;;;;;;;;;5054779;28;20059;-85
2021/10/10 08:02:52;;;;;;;13.98;8.38;;;;;;;;;;5069188;28;20168;-85
2021/10/10 08:05:24;;;;;;;12.07;7.75;;;;;;;;;;5079361;28;20112;-85
2021/10/10 08:07:51;;;;;;;12.13;7.53;;;;;;;;;;5083774;28;20298;-85
2021/10/10 08:10:18;;;;;;;17.73;8.27;;;;;;;;;;5076749;28;20052;-84
2021/10/10 08:12:45;;;;;;;12.57;7.80;;;;;;;;;;5096781;28;20296;-85
2021/10/10 08:15:12;;;;;;;16.70;7.78;;;;;;;;;;5080045;28;20109;-85
2021/10/10 08:17:38;;;;;;;17.30;8.75;;;;;;;;;;5078145;28;20052;-85
2021/10/10 08:20:09;;;;;;;14.77;8.75;;;;;;;;;;5079186;28;20048;-85
2021/10/10 08:22:36;;;;;;;14.20;8.68;;;;;;;;;;5096843;28;20044;-85
2021/10/10 08:25:07;;;;;;;12.00;8.50;;;;;;;;;;5077071;28;20112;-85
2021/10/10 08:27:40;;;;;;;14.48;8.35;;;;;;;;;;5076212;28;20339;-85
2021/10/10 08:30:09;;;;;;;12.80;7.35;;;;;;;;;;5068721;28;20273;-85
2021/10/10 08:32:36;;;;;;;14.63;8.70;;;;;;;;;;5082683;28;20091;-85
2021/10/10 08:35:04;;;;;;;19.15;8.23;;;;;;;;;;5064433;28;20052;-85
2021/10/10 08:37:31;;;;;;;13.77;7.75;;;;;;;;;;5089433;28;20049;-85
2021/10/10 08:40:03;;;;;;;15.52;8.20;;;;;;;;;;5074876;28;20392;-84
2021/10/10 08:42:33;;;;;;;17.30;8.95;;;;;;;;;;5072156;28;20076;-85
2021/10/10 08:45:23;;;;;;;11.70;7.63;;;;;;;;;;5070821;28;20078;-85
2021/10/10 08:47:49;;;;;;;13.35;8.48;;;;;;;;;;5093775;28;20048;-85
2021/10/10 08:50:17;;;;;;;11.43;7.38;;;;;;;;;;5078230;28;20064;-85
2021/10/10 08:52:45;;;;;;;12.82;8.00;;;;;;;;;;5074421;28;20108;-85
2021/10/10 08:55:12;;;;;;;17.42;7.82;;;;;;;;;;5057355;28;20126;-83
2021/10/10 08:57:40;;;;;;;10.55;7.72;;;;;;;;;;5055921;28;20059;-86
2021/10/10 09:00:10;;;;;;;14.70;8.20;;;;;;;;;;5071322;28;20130;-85
2021/10/10 09:02:39;;;;;;;11.10;7.57;;;;;;;;;;5072242;28;20052;-85
2021/10/10 09:05:09;;;;;;;19.38;8.45;;;;;;;;;;5055341;28;20048;-85
2021/10/10 09:07:39;;;;;;;13.77;8.82;;;;;;;;;;5056252;28;20048;-85
2021/10/10 09:10:20;;;;;;;11.30;7.63;;;;;;;;;;5072499;28;20147;-85
2021/10/10 09:12:47;;;;;;;15.40;8.93;;;;;;;;;;5055741;28;20147;-85
2021/10/10 09:15:18;;;;;;;15.68;8.25;;;;;;;;;;5053599;28;20292;-85
2021/10/10 09:17:58;;;;;;;17.08;8.52;;;;;;;;;;5053584;28;20156;-84
2021/10/10 09:20:33;;;;;;;17.88;8.38;;;;;;;;;;5058898;28;20051;-85
2021/10/10 09:23:01;;;;;;;14.95;8.10;;;;;;;;;;5074035;28;20396;-85
2021/10/10 09:25:28;;;;;;;13.52;7.93;;;;;;;;;;5102013;28;20044;-85
2021/10/10 09:28:00;;;;;;;13.93;8.38;;;;;;;;;;5089077;28;20101;-85
2021/10/10 09:30:27;;;;;;;17.08;7.47;;;;;;;;;;5084590;28;20193;-85
2021/10/10 09:32:55;;;;;;;18.85;8.27;;;;;;;;;;5067561;28;20051;-83
2021/10/10 09:35:31;;;;;;;16.20;8.32;;;;;;;;;;5080863;28;20043;-83
2021/10/10 09:38:06;;;;;;;17.42;8.52;;;;;;;;;;5076527;28;20032;-83
2021/10/10 09:40:38;;;;;;;11.82;7.88;;;;;;;;;;5089205;28;20161;-84
2021/10/10 09:43:06;;;;;;;13.27;8.13;;;;;;;;;;5066318;28;20048;-84
2021/10/10 09:45:41;;;;;;;13.80;7.57;;;;;;;;;;5063270;28;20049;-84
2021/10/10 09:48:15;;;;;;;14.45;7.85;;;;;;;;;;5087045;28;20070;-84
2021/10/10 09:50:47;;;;;;;11.88;7.13;;;;;;;;;;5057628;28;20070;-84
2021/10/10 09:53:22;;;;;;;18.17;8.00;;;;;;;;;;5058284;28;20040;-84
2021/10/10 09:55:55;;;;;;;12.65;7.53;;;;;;;;;;5053797;28;20059;-84
2021/10/10 09:58:46;;;;;;;13.75;8.55;;;;;;;;;;5050433;28;20053;-84
2021/10/10 10:01:18;;;;;;;13.10;8.40;;;;;;;;;;5079245;28;20044;-85
2021/10/10 10:03:55;;;;;;;14.68;8.15;;;;;;;;;;5084768;28;20416;-84
2021/10/10 10:06:24;;;;;;;14.35;8.57;;;;;;;;;;5067326;28;20060;-84
2021/10/10 10:08:50;;;;;;;18.58;8.95;;;;;;;;;;5076982;28;20462;-84
2021/10/10 10:11:17;;;;;;;13.38;8.55;;;;;;;;;;5076634;28;20076;-84
2021/10/10 10:13:51;;;;;;;17.83;9.13;;;;;;;;;;5070724;28;20200;-85
2021/10/10 10:16:17;;;;;;;18.35;10.13;;;;;;;;;;5093101;28;20067;-85
2021/10/10 10:18:45;;;;;;;14.95;8.48;;;;;;;;;;5069508;28;20056;-84
2021/10/10 10:21:13;;;;;;;15.55;9.63;;;;;;;;;;5095729;28;20078;-84
2021/10/10 10:23:39;;;;;;;14.85;8.48;;;;;;;;;;5076368;28;20066;-84
2021/10/10 10:26:06;;;;;;;16.33;8.82;;;;;;;;;;5092324;28;20417;-84
2021/10/10 10:28:36;;;;;;;18.25;9.48;;;;;;;;;;5093043;28;20339;-85
2021/10/10 10:31:03;;;;;;;14.45;8.48;;;;;;;;;;5075451;28;20136;-84
2021/10/10 10:33:31;;;;;;;14.48;8.65;;;;;;;;;;5089248;28;20036;-84
2021/10/10 10:36:01;;;;;;;17.15;9.82;;;;;;;;;;5074344;28;20056;-84
2021/10/10 10:38:57;;;;;;;15.35;8.95;;;;;;;;;;5067825;28;20044;-84
2021/10/10 10:41:42;;;;;;;13.95;8.00;;;;;;;;;;5064841;28;20051;-85
2021/10/10 10:44:29;;;;;;;16.35;8.80;;;;;;;;;;5074014;28;20137;-85
2021/10/10 10:46:55;;;;;;;;;;;;;;;;;;5075724;28;20110;-85
2021/10/10 10:49:43;;;;;;;21.05;10.18;;;;;;;;;;5074700;28;20192;-85
2021/10/10 10:52:26;;;;;;;16.05;9.32;;;;;;;;;;5093290;28;20247;-85
2021/10/10 10:55:12;;;;;;;15.45;9.23;;;;;;;;;;5093011;28;20044;-85
2021/10/10 10:57:57;;;;;;;20.83;10.47;;;;;;;;;;5093943;28;20143;-84
2021/10/10 11:00:24;;;;;;;14.32;9.88;;;;;;;;;;5075148;28;20051;-85
2021/10/10 11:03:09;;;;;;;24.27;10.77;;;;;;;;;;5070584;28;20040;-85
2021/10/10 11:05:43;;;;;;;15.57;9.60;;;;;;;;;;5059108;28;20393;-85
2021/10/10 11:08:22;;;;;;;17.05;9.65;;;;;;;;;;5060226;28;20047;-85
2021/10/10 11:10:59;;;;;;;15.40;9.02;;;;;;;;;;5091274;28;20060;-85
2021/10/10 11:13:27;;;;;;;18.88;10.27;;;;;;;;;;5077870;28;20068;-85
2021/10/10 11:15:56;;;;;;;17.50;9.32;;;;;;;;;;5074636;28;20048;-85
2021/10/10 11:18:25;;;;;;;15.10;9.38;;;;;;;;;;5091299;28;20173;-85
2021/10/10 11:20:59;;;;;;;17.85;9.30;;;;;;;;;;5074509;28;20051;-85
2021/10/10 11:23:25;;;;;;;16.02;9.00;;;;;;;;;;5086744;28;20059;-85
2021/10/10 11:25:54;;;;;;;14.80;9.02;;;;;;;;;;5085904;28;20048;-85
2021/10/10 11:28:33;;;;;;;15.43;9.05;;;;;;;;;;5083077;28;20053;-85
2021/10/10 11:31:18;;;;;;;13.50;9.27;;;;;;;;;;5054988;28;20106;-85
2021/10/10 11:33:57;;;;;;;13.35;8.45;;;;;;;;;;5072197;28;20048;-85
2021/10/10 11:36:36;;;;;;;12.18;8.55;;;;;;;;;;5065374;28;20071;-85
2021/10/10 11:39:05;;;;;;;18.25;9.95;;;;;;;;;;5054475;28;20104;-85
2021/10/10 11:41:35;;;;;;;12.27;8.45;;;;;;;;;;5059142;28;20372;-85
2021/10/10 11:44:16;;;;;;;15.73;9.27;;;;;;;;;;5069035;28;20294;-85
2021/10/10 11:46:51;;;;;;;16.17;9.70;;;;;;;;;;5077941;28;20052;-85
2021/10/10 11:49:22;;;;;;;16.17;9.38;;;;;;;;;;5096438;28;20052;-85
2021/10/10 11:51:51;;;;;;;14.55;9.65;;;;;;;;;;5070061;28;20355;-86
2021/10/10 11:54:33;;;;;;;17.13;10.18;;;;;;;;;;5056426;28;20116;-84
2021/10/10 11:57:00;;;;;;;17.00;9.98;;;;;;;;;;5058996;28;20207;-83
2021/10/10 11:59:26;;;;;;;19.20;9.70;;;;;;;;;;5075650;28;20048;-84
2021/10/10 12:01:54;;;;;;;17.83;10.68;;;;;;;;;;5093588;28;20043;-84
2021/10/10 12:04:21;;;;;;;22.58;10.07;;;;;;;;;;5079414;28;20040;-84
2021/10/10 12:06:48;;;;;;;15.98;9.40;;;;;;;;;;5069588;28;20053;-85
2021/10/10 12:09:16;;;;;;;16.45;9.77;;;;;;;;;;5094878;28;20067;-85
2021/10/10 12:12:03;;;;;;;17.00;10.18;;;;;;;;;;5079838;28;20075;-85
2021/10/10 12:14:43;;;;;;;20.85;9.82;;;;;;;;;;5086797;28;20066;-85
2021/10/10 12:17:31;;;;;;;20.48;10.45;;;;;;;;;;5065744;28;20071;-85
2021/10/10 12:19:58;;;;;;;16.25;10.13;;;;;;;;;;5046998;28;20105;-85
2021/10/10 12:22:26;;;;;;;15.45;10.15;;;;;;;;;;5055584;28;20049;-84
2021/10/10 12:24:53;;;;;;;15.05;10.02;;;;;;;;;;5075239;28;20300;-85
2021/10/10 12:27:27;;;;;;;20.05;11.13;;;;;;;;;;5094940;28;20371;-84
2021/10/10 12:29:54;;;;;;;17.80;10.93;;;;;;;;;;5107209;28;20073;-84
2021/10/10 12:32:28;;;;;;;16.95;10.25;;;;;;;;;;5104678;28;20059;-84
2021/10/10 12:35:17;;;;;;;17.88;10.00;;;;;;;;;;5067006;28;20116;-85
2021/10/10 12:37:51;;;;;;;18.85;10.98;;;;;;;;;;5081430;28;20040;-85
2021/10/10 12:40:22;;;;;;;15.85;10.95;;;;;;;;;;5079387;28;20179;-84
2021/10/10 12:42:51;;;;;;;18.52;10.95;;;;;;;;;;5079183;28;20138;-84
2021/10/10 12:45:32;;;;;;;19.17;11.10;;;;;;;;;;5077874;28;20097;-85
2021/10/10 12:48:10;;;;;;;21.08;11.38;;;;;;;;;;5085628;28;20036;-85
2021/10/10 12:50:50;;;;;;;20.52;12.25;;;;;;;;;;5072859;28;20047;-86
2021/10/10 12:53:23;;;;;;;20.60;11.60;;;;;;;;;;5083761;28;20104;-85
2021/10/10 12:56:09;;;;;;;19.85;11.80;;;;;;;;;;5086165;28;20074;-85
2021/10/10 12:58:56;;;;;;;20.13;11.57;;;;;;;;;;5077165;28;20061;-85
2021/10/10 13:01:26;;;;;;;18.63;11.32;;;;;;;;;;5053522;28;20060;-83
2021/10/10 13:04:16;;;;;;;21.25;12.65;;;;;;;;;;5086156;28;20194;-85
2021/10/10 13:06:43;;;;;;;21.15;11.82;;;;;;;;;;5079250;28;20076;-85
2021/10/10 13:09:10;;;;;;;23.23;11.57;;;;;;;;;;5070322;28;20285;-85
2021/10/10 13:11:42;;;;;;;18.73;11.07;;;;;;;;;;5087667;28;20281;-86
2021/10/10 13:14:09;;;;;;;18.20;11.50;;;;;;;;;;5086089;28;20050;-85
2021/10/10 13:16:36;;;;;;;19.48;12.02;;;;;;;;;;5071776;28;20048;-85
2021/10/10 13:19:06;;;;;;;19.92;12.20;;;;;;;;;;5075802;28;20101;-85
2021/10/10 13:21:33;;;;;;;18.67;12.27;;;;;;;;;;5072204;28;20110;-85
2021/10/10 13:23:59;;;;;;;26.77;12.15;;;;;;;;;;5068211;28;20383;-85
2021/10/10 13:26:26;;;;;;;20.60;11.68;;;;;;;;;;5071171;28;20144;-85
2021/10/10 13:28:53;;;;;;;26.25;13.35;;;;;;;;;;5078985;28;20331;-85
2021/10/10 13:31:19;;;;;;;23.15;13.35;;;;;;;;;;5052045;28;20194;-85
2021/10/10 13:33:47;;;;;;;22.38;13.23;;;;;;;;;;5087706;28;20054;-85
2021/10/10 13:36:14;;;;;;;24.10;13.32;;;;;;;;;;5069868;28;20125;-83
2021/10/10 13:38:40;;;;;;;23.90;13.68;;;;;;;;;;5090744;28;20286;-83
2021/10/10 13:41:07;;;;;;;21.20;12.82;;;;;;;;;;5073655;28;20371;-86
2021/10/10 13:43:34;;;;;;;24.55;13.35;;;;;;;;;;5090807;28;20440;-85
2021/10/10 13:46:03;;;;;;;27.20;15.20;;;;;;;;;;5088702;28;20113;-85
2021/10/10 13:48:31;;;;;;;23.20;14.55;;;;;;;;;;5068068;28;20233;-85
2021/10/10 13:50:59;;;;;;;22.48;13.68;;;;;;;;;;5070048;28;20225;-85
2021/10/10 13:53:26;;;;;;;20.02;13.63;;;;;;;;;;5069141;28;20047;-85
2021/10/10 13:55:54;;;;;;;24.65;13.80;;;;;;;;;;5092022;28;20052;-87
2021/10/10 13:58:20;;;;;;;21.15;13.63;;;;;;;;;;5068065;28;20050;-87
2021/10/10 14:00:49;;;;;;;22.13;12.95;;;;;;;;;;5085272;28;20090;-85
2021/10/10 14:03:20;;;;;;;25.52;15.13;;;;;;;;;;5072216;28;20040;-85
2021/10/10 14:05:47;;;;;;;26.40;14.60;;;;;;;;;;5071116;28;20443;-85
2021/10/10 14:08:17;;;;;;;21.17;14.48;;;;;;;;;;5071583;28;20419;-85
2021/10/10 14:10:50;;;;;;;23.98;14.32;;;;;;;;;;5074652;28;20048;-84
2021/10/10 14:13:17;;;;;;;22.58;13.85;;;;;;;;;;5080021;28;20058;-84
2021/10/10 14:15:48;;;;;;;26.10;14.60;;;;;;;;;;5083395;28;20070;-85
2021/10/10 14:18:18;;;;;;;24.08;14.70;;;;;;;;;;5074208;28;20166;-84
2021/10/10 14:20:48;;;;;;;25.70;14.70;;;;;;;;;;5071288;28;20048;-84
2021/10/10 14:23:15;;;;;;;21.10;13.88;;;;;;;;;;5094126;28;20044;-84
2021/10/10 14:25:48;;;;;;;24.88;14.52;;;;;;;;;;5075847;28;20044;-84
2021/10/10 14:28:17;;;;;;;23.20;14.13;;;;;;;;;;5083559;28;20141;-84
2021/10/10 14:30:44;;;;;;;26.73;13.75;;;;;;;;;;5076144;28;20633;-85
2021/10/10 14:33:19;;;;;;;24.15;13.98;;;;;;;;;;5089860;28;20375;-85
2021/10/10 14:35:46;;;;;;;25.35;15.48;;;;;;;;;;5092142;28;20335;-85
2021/10/10 14:38:12;;;;;;;29.95;14.98;;;;;;;;;;5074125;28;20208;-85
2021/10/10 14:41:03;;;;;;;26.00;13.52;;;;;;;;;;5074446;28;20059;-85
2021/10/10 14:43:40;;;;;;;28.05;14.40;;;;;;;;;;5091718;28;20919;-85